Time;durP1;ratioP1;P1;durP2;ratioP2;P2;SDS_P1;SDS_P2;PMS_P1;PMS_P2;Temp;Humidity;BMP_temperature;BMP_pressure;BME280_temperature;BME280_humidity;BME280_pressure;Samples;Min_cycle;Max_cycle;Signal;HPM_P1;HPM_P2
2022/08/27 00:01:26;;;;;;;18.45;4.70;;;22.30;99.90;;;;;;4972208;28;20037;-75
2022/08/27 00:03:55;;;;;;;12.88;3.75;;;22.10;99.90;;;;;;4971944;28;20023;-74
2022/08/27 00:06:22;;;;;;;17.25;4.82;;;22.10;99.90;;;;;;4971917;28;20031;-75
2022/08/27 00:08:49;;;;;;;18.58;4.88;;;22.20;99.90;;;;;;4972001;28;20158;-74
2022/08/27 00:11:17;;;;;;;14.05;4.22;;;22.20;99.90;;;;;;4971355;28;20508;-73
2022/08/27 00:13:43;;;;;;;15.07;4.07;;;22.30;99.90;;;;;;4972566;28;20433;-74
2022/08/27 00:16:10;;;;;;;19.00;3.78;;;22.30;99.90;;;;;;4971971;28;20502;-74
2022/08/27 00:18:37;;;;;;;14.20;3.90;;;22.30;99.90;;;;;;4972141;28;20046;-73
2022/08/27 00:21:07;;;;;;;;;;;22.20;99.90;;;;;;4972537;28;20062;-75
2022/08/27 00:23:34;;;;;;;17.00;5.70;;;22.20;99.90;;;;;;4970890;28;19906;-74
2022/08/27 00:26:00;;;;;;;13.65;4.97;;;22.00;99.90;;;;;;4972379;28;20288;-74
2022/08/27 00:28:28;;;;;;;23.17;4.75;;;21.90;99.90;;;;;;4971869;28;20023;-75
2022/08/27 00:30:54;;;;;;;13.45;4.03;;;21.80;99.90;;;;;;4971840;28;20077;-75
2022/08/27 00:33:21;;;;;;;19.08;4.47;;;21.90;99.90;;;;;;4974629;28;20046;-75
2022/08/27 00:35:47;;;;;;;18.73;4.45;;;21.70;99.90;;;;;;4975632;28;20035;-75
2022/08/27 00:38:12;;;;;;;15.32;4.88;;;21.70;99.90;;;;;;4976126;28;20031;-75
2022/08/27 00:40:40;;;;;;;18.67;5.30;;;21.70;99.90;;;;;;4990569;28;20037;-75
2022/08/27 00:43:06;;;;;;;17.13;4.05;;;21.90;99.90;;;;;;4975990;28;20037;-75
2022/08/27 00:45:45;;;;;;;17.05;5.00;;;22.00;99.90;;;;;;4975470;28;20093;-75
2022/08/27 00:48:14;;;;;;;13.43;4.95;;;21.80;99.90;;;;;;4975696;28;20169;-74
2022/08/27 00:50:44;;;;;;;13.77;4.05;;;21.90;99.90;;;;;;4975301;28;20080;-74
2022/08/27 00:53:21;;;;;;;11.07;3.78;;;21.90;99.90;;;;;;4975931;28;20114;-75
2022/08/27 00:56:04;;;;;;;11.98;3.78;;;22.00;99.90;;;;;;4975611;28;20043;-74
2022/08/27 00:58:35;;;;;;;12.85;3.42;;;21.90;99.90;;;;;;4975241;28;20039;-74
2022/08/27 01:01:04;;;;;;;12.20;3.65;;;21.80;99.90;;;;;;4975248;28;20038;-74
2022/08/27 01:03:30;;;;;;;12.18;4.00;;;21.60;99.90;;;;;;4975418;28;20113;-75
2022/08/27 01:06:00;;;;;;;14.43;3.60;;;21.70;99.90;;;;;;4974056;28;20043;-75
2022/08/27 01:08:29;;;;;;;12.50;3.85;;;21.80;99.90;;;;;;4975545;28;20031;-73
2022/08/27 01:10:58;;;;;;;13.02;3.88;;;21.80;99.90;;;;;;4975320;28;20090;-74
2022/08/27 01:13:28;;;;;;;17.30;4.15;;;21.90;99.90;;;;;;4975432;28;20177;-75
2022/08/27 01:15:57;;;;;;;13.85;4.07;;;22.00;99.90;;;;;;4975121;28;20366;-75
2022/08/27 01:18:28;;;;;;;12.35;3.80;;;21.80;99.90;;;;;;4973727;28;20038;-75
2022/08/27 01:21:01;;;;;;;16.38;3.90;;;21.80;99.90;;;;;;4975157;28;20046;-75
2022/08/27 01:23:54;;;;;;;10.77;4.30;;;21.70;99.90;;;;;;4974830;28;20031;-75
2022/08/27 01:26:20;;;;;;;15.50;4.13;;;21.80;99.90;;;;;;4975239;28;20031;-75
2022/08/27 01:28:47;;;;;;;12.73;4.20;;;21.90;99.90;;;;;;4974247;28;20330;-76
2022/08/27 01:31:13;;;;;;;27.13;4.53;;;21.90;99.90;;;;;;4974881;28;20031;-74
2022/08/27 01:33:39;;;;;;;13.38;3.92;;;21.90;99.90;;;;;;4973533;28;20045;-75
2022/08/27 01:36:07;;;;;;;14.75;4.35;;;21.70;99.90;;;;;;4984604;28;20499;-73
2022/08/27 01:38:33;;;;;;;11.65;3.75;;;21.80;99.90;;;;;;4993981;28;20033;-74
2022/08/27 01:41:00;;;;;;;14.75;4.53;;;21.80;99.90;;;;;;4994467;28;20125;-75
2022/08/27 01:43:27;;;;;;;14.38;4.15;;;21.80;99.90;;;;;;4993760;28;20052;-75
2022/08/27 01:45:52;;;;;;;10.73;3.37;;;21.90;99.90;;;;;;4993801;28;20027;-75
2022/08/27 01:48:20;;;;;;;18.00;4.00;;;21.80;99.90;;;;;;4993905;28;20536;-74
2022/08/27 01:50:47;;;;;;;11.77;3.90;;;21.80;99.90;;;;;;4994111;28;20448;-74
2022/08/27 01:53:31;;;;;;;15.68;4.93;;;21.80;99.90;;;;;;4994291;28;20369;-74
2022/08/27 01:55:57;;;;;;;17.60;4.50;;;21.60;99.90;;;;;;4992858;28;20407;-75
2022/08/27 01:58:28;;;;;;;15.98;4.80;;;21.50;99.90;;;;;;4993779;28;20042;-73
2022/08/27 02:00:58;;;;;;;17.02;4.55;;;21.60;99.90;;;;;;4992567;28;20043;-74
2022/08/27 02:03:24;;;;;;;13.32;4.38;;;21.60;99.90;;;;;;4993887;28;20447;-73
2022/08/27 02:05:50;;;;;;;11.10;4.35;;;21.50;99.90;;;;;;4993671;28;20545;-75
2022/08/27 02:08:17;;;;;;;13.48;5.03;;;21.50;99.90;;;;;;4993825;28;20054;-75
2022/08/27 02:10:44;;;;;;;8.98;4.10;;;21.50;99.90;;;;;;4993853;28;20131;-73
2022/08/27 02:13:12;;;;;;;12.57;4.30;;;21.60;99.90;;;;;;4992523;28;20069;-75
2022/08/27 02:15:39;;;;;;;13.23;5.57;;;21.60;99.90;;;;;;4993532;28;20053;-76
2022/08/27 02:18:06;;;;;;;16.45;5.95;;;21.70;99.90;;;;;;4993472;28;20054;-74
2022/08/27 02:20:32;;;;;;;13.95;4.63;;;21.80;99.90;;;;;;4993362;28;20022;-75
2022/08/27 02:22:58;;;;;;;15.63;4.80;;;21.80;99.90;;;;;;4993654;28;20044;-75
2022/08/27 02:25:27;;;;;;;11.88;4.65;;;21.90;99.90;;;;;;4993458;28;20042;-73
2022/08/27 02:27:53;;;;;;;19.77;4.68;;;21.70;99.90;;;;;;4993334;28;20113;-74
2022/08/27 02:30:21;;;;;;;14.90;5.18;;;21.70;99.90;;;;;;4993150;28;20062;-74
2022/08/27 02:32:48;;;;;;;16.40;5.03;;;21.70;99.90;;;;;;4993296;28;20023;-75
2022/08/27 02:35:16;;;;;;;12.18;4.00;;;21.60;99.90;;;;;;4993569;28;20026;-74
2022/08/27 02:37:43;;;;;;;13.15;4.25;;;21.80;99.90;;;;;;4993077;28;20062;-75
2022/08/27 02:40:10;;;;;;;12.27;4.55;;;21.70;99.90;;;;;;4992895;28;20516;-73
2022/08/27 02:42:36;;;;;;;13.02;4.13;;;21.60;99.90;;;;;;4993007;28;20041;-74
2022/08/27 02:45:04;;;;;;;14.05;4.47;;;21.70;99.90;;;;;;4992935;28;20046;-75
2022/08/27 02:47:30;;;;;;;8.63;3.80;;;21.70;99.90;;;;;;4992064;28;20050;-75
2022/08/27 02:49:56;;;;;;;14.90;4.25;;;21.60;99.90;;;;;;4993160;28;20038;-74
2022/08/27 02:52:21;;;;;;;17.50;4.63;;;21.60;99.90;;;;;;4992730;28;20035;-75
2022/08/27 02:54:48;;;;;;;8.55;4.18;;;21.60;99.90;;;;;;4992622;28;20185;-73
2022/08/27 02:57:13;;;;;;;10.13;4.30;;;21.70;99.90;;;;;;4990610;28;20142;-74
2022/08/27 02:59:39;;;;;;;11.68;4.05;;;21.80;99.90;;;;;;4992493;28;20046;-75
2022/08/27 03:02:05;;;;;;;12.65;4.25;;;21.80;99.90;;;;;;4993070;28;20029;-75
2022/08/27 03:04:30;;;;;;;17.05;4.47;;;21.80;99.90;;;;;;4991221;28;20527;-75
2022/08/27 03:06:56;;;;;;;17.38;4.68;;;21.80;99.90;;;;;;4991216;28;20401;-75
2022/08/27 03:09:21;;;;;;;11.57;4.20;;;21.70;99.90;;;;;;4991339;28;20346;-73
2022/08/27 03:11:47;;;;;;;12.68;4.38;;;21.60;99.90;;;;;;4991036;28;20045;-75
2022/08/27 03:14:13;;;;;;;14.00;4.20;;;21.50;99.90;;;;;;4993058;28;20022;-74
2022/08/27 03:16:39;;;;;;;15.57;5.05;;;21.40;99.90;;;;;;4991060;28;20030;-74
2022/08/27 03:19:06;;;;;;;20.60;4.25;;;21.50;99.90;;;;;;4992141;28;20148;-75
2022/08/27 03:21:33;;;;;;;13.40;3.92;;;21.40;99.90;;;;;;4992137;28;20041;-73
2022/08/27 03:24:00;;;;;;;8.68;3.55;;;21.40;99.90;;;;;;4991066;28;20066;-73
2022/08/27 03:26:27;;;;;;;17.98;4.18;;;21.30;99.90;;;;;;4991980;28;20453;-74
2022/08/27 03:28:53;;;;;;;19.45;4.18;;;21.20;99.90;;;;;;4992573;28;20107;-75
2022/08/27 03:31:25;;;;;;;13.68;4.22;;;21.20;99.90;;;;;;4992149;28;20027;-75
2022/08/27 03:34:00;;;;;;;14.10;4.15;;;21.10;99.90;;;;;;4992088;28;20475;-74
2022/08/27 03:36:28;;;;;;;16.30;4.60;;;21.10;99.90;;;;;;4992053;28;20431;-74
2022/08/27 03:38:54;;;;;;;15.13;4.47;;;21.10;99.90;;;;;;4991795;28;20046;-74
2022/08/27 03:41:21;;;;;;;16.33;4.68;;;21.20;99.90;;;;;;4990842;28;20490;-75
2022/08/27 03:43:47;;;;;;;16.25;4.28;;;21.30;99.90;;;;;;4992325;28;20445;-73
2022/08/27 03:46:13;;;;;;;13.68;3.50;;;21.40;99.90;;;;;;4991862;28;20531;-74
2022/08/27 03:48:39;;;;;;;10.80;4.20;;;21.40;99.90;;;;;;4990639;28;20518;-74
2022/08/27 03:51:12;;;;;;;20.80;4.43;;;21.40;99.90;;;;;;4991789;28;20034;-75
2022/08/27 03:53:40;;;;;;;13.95;4.07;;;21.50;99.90;;;;;;4990580;28;20034;-75
2022/08/27 03:56:07;;;;;;;13.88;4.30;;;21.40;99.90;;;;;;4992227;28;20026;-74
2022/08/27 03:58:34;;;;;;;12.45;3.60;;;21.40;99.90;;;;;;4991954;28;20065;-74
2022/08/27 04:01:00;;;;;;;14.17;3.63;;;21.30;99.90;;;;;;4991645;28;20044;-74
2022/08/27 04:03:27;;;;;;;12.18;2.83;;;21.30;99.90;;;;;;4991495;28;20030;-75
2022/08/27 04:05:54;;;;;;;10.50;3.50;;;21.40;99.90;;;;;;4990271;28;20453;-75
2022/08/27 04:08:20;;;;;;;12.77;3.72;;;21.30;99.90;;;;;;4991178;28;20042;-74
2022/08/27 04:10:46;;;;;;;10.82;3.55;;;21.10;99.90;;;;;;4991895;28;20053;-74
2022/08/27 04:13:12;;;;;;;11.02;3.17;;;21.20;99.90;;;;;;4991269;28;20100;-75
2022/08/27 04:15:49;;;;;;;17.23;5.97;;;21.30;99.90;;;;;;4991377;28;20129;-75
2022/08/27 04:18:15;;;;;;;13.77;3.83;;;21.40;99.90;;;;;;4991349;28;20308;-74
2022/08/27 04:20:45;;;;;;;15.25;3.63;;;21.50;99.90;;;;;;4990251;28;20031;-75
2022/08/27 04:23:12;;;;;;;14.90;3.40;;;21.50;99.90;;;;;;4990729;28;20164;-75
2022/08/27 04:25:42;;;;;;;8.35;3.20;;;21.50;99.90;;;;;;4990549;28;20031;-75
2022/08/27 04:28:08;;;;;;;11.45;3.00;;;21.50;99.90;;;;;;4991502;28;20023;-74
2022/08/27 04:30:39;;;;;;;10.90;3.17;;;21.40;99.90;;;;;;4991200;28;20465;-75
2022/08/27 04:33:05;;;;;;;14.70;3.92;;;21.30;99.90;;;;;;4991431;28;20038;-74
2022/08/27 04:35:30;;;;;;;12.30;2.92;;;21.30;99.90;;;;;;4990187;28;20022;-74
2022/08/27 04:37:56;;;;;;;12.55;3.08;;;21.30;99.90;;;;;;4991568;28;20041;-73
2022/08/27 04:41:18;;;;;;;15.73;3.50;;;21.20;99.90;;;;;;4991292;28;20469;-74
2022/08/27 04:43:08;;;;;;;15.35;2.97;;;21.20;99.90;;;;;;4991226;28;20023;-73
2022/08/27 04:45:47;;;;;;;12.55;3.80;;;21.20;99.90;;;;;;4989864;28;20133;-74
2022/08/27 04:48:16;;;;;;;9.20;3.05;;;21.10;99.90;;;;;;4990020;28;20475;-74
2022/08/27 04:50:43;;;;;;;12.00;3.08;;;21.10;99.90;;;;;;4990738;28;20097;-73
2022/08/27 04:53:10;;;;;;;12.43;3.63;;;21.20;99.90;;;;;;4990451;28;20018;-74
2022/08/27 04:55:49;;;;;;;11.35;4.03;;;21.20;99.90;;;;;;4990991;28;20096;-75
2022/08/27 04:58:16;;;;;;;15.85;3.28;;;21.20;99.90;;;;;;4991027;28;20511;-75
2022/08/27 05:00:47;;;;;;;14.82;4.32;;;21.20;99.90;;;;;;4990997;28;20114;-75
2022/08/27 05:03:14;;;;;;;19.30;3.10;;;21.30;99.90;;;;;;4990949;28;20457;-74
2022/08/27 05:05:41;;;;;;;11.20;2.70;;;21.30;99.90;;;;;;4990785;28;20031;-75
2022/08/27 05:08:07;;;;;;;15.07;4.03;;;21.10;99.90;;;;;;4991476;28;20030;-74
2022/08/27 05:10:44;;;;;;;11.70;3.38;;;21.20;99.90;;;;;;4990795;28;20050;-76
2022/08/27 05:13:11;;;;;;;19.52;3.80;;;21.10;99.90;;;;;;4991204;28;20031;-74
2022/08/27 05:15:37;;;;;;;10.82;3.50;;;21.20;99.90;;;;;;4989956;28;20469;-76
2022/08/27 05:18:04;;;;;;;14.80;3.75;;;21.20;99.90;;;;;;4990863;28;20073;-75
2022/08/27 05:20:31;;;;;;;15.23;3.63;;;21.10;99.90;;;;;;4992873;28;20141;-76
2022/08/27 05:22:57;;;;;;;14.25;3.30;;;21.20;99.90;;;;;;4994889;28;20030;-74
2022/08/27 05:25:23;;;;;;;14.70;3.42;;;21.20;99.90;;;;;;4993352;28;20494;-73
2022/08/27 05:27:49;;;;;;;15.93;3.55;;;21.20;99.90;;;;;;4994242;28;20120;-74
2022/08/27 05:30:15;;;;;;;15.30;3.83;;;21.30;99.90;;;;;;4994189;28;20540;-74
2022/08/27 05:32:42;;;;;;;14.13;3.80;;;21.10;99.90;;;;;;4994297;28;20109;-75
2022/08/27 05:35:08;;;;;;;16.23;3.83;;;21.10;99.90;;;;;;4994849;28;20033;-75
2022/08/27 05:37:34;;;;;;;15.57;4.15;;;21.10;99.90;;;;;;4994084;28;20026;-75
2022/08/27 05:40:00;;;;;;;14.82;3.80;;;21.20;99.90;;;;;;4994266;28;20034;-75
2022/08/27 05:42:28;;;;;;;11.73;3.58;;;21.00;99.90;;;;;;4994115;28;20050;-75
2022/08/27 05:44:55;;;;;;;;;;;21.00;99.90;;;;;;4994482;28;20034;-75
2022/08/27 05:47:21;;;;;;;14.52;3.85;;;20.90;99.90;;;;;;4994217;28;19916;-75
2022/08/27 05:49:51;;;;;;;16.63;3.97;;;21.00;99.90;;;;;;4993677;28;20445;-75
2022/08/27 05:52:17;;;;;;;16.52;4.35;;;21.00;99.90;;;;;;4994095;28;20222;-76
2022/08/27 05:54:43;;;;;;;12.07;3.80;;;21.00;99.90;;;;;;4993920;28;20053;-76
2022/08/27 05:57:09;;;;;;;9.60;2.70;;;20.90;99.90;;;;;;4993985;28;20460;-74
2022/08/27 06:02:19;;;;;;;8.00;3.38;;;21.00;99.90;;;;;;4994042;28;20161;-75
2022/08/27 06:04:45;;;;;;;14.38;3.25;;;20.90;99.90;;;;;;4993938;28;20046;-74
2022/08/27 06:07:11;;;;;;;11.38;3.58;;;20.90;99.90;;;;;;4993548;28;20035;-75
2022/08/27 06:09:38;;;;;;;17.73;3.83;;;20.80;99.90;;;;;;4993408;28;20471;-76
2022/08/27 06:12:04;;;;;;;9.18;3.03;;;20.90;99.90;;;;;;4992639;28;20045;-74
2022/08/27 06:14:30;;;;;;;8.45;3.05;;;21.00;99.90;;;;;;4992393;28;20026;-76
2022/08/27 06:16:58;;;;;;;10.23;2.78;;;21.00;99.90;;;;;;4994146;28;20019;-80
2022/08/27 06:19:24;;;;;;;14.13;3.58;;;21.00;99.90;;;;;;4992682;28;20126;-78
2022/08/27 06:21:50;;;;;;;12.80;3.40;;;20.90;99.90;;;;;;4993617;28;20105;-79
2022/08/27 06:24:16;;;;;;;9.95;3.00;;;21.00;99.90;;;;;;4992197;28;20037;-77
2022/08/27 06:26:43;;;;;;;9.63;2.78;;;21.00;99.90;;;;;;4993384;28;20030;-78
2022/08/27 06:29:11;;;;;;;19.23;3.30;;;21.00;99.90;;;;;;4993839;28;20376;-76
2022/08/27 06:31:37;;;;;;;10.93;2.72;;;20.90;99.90;;;;;;4993848;28;20047;-80
2022/08/27 06:34:06;;;;;;;18.42;3.50;;;20.90;99.90;;;;;;4992259;28;20461;-77
2022/08/27 06:36:34;;;;;;;15.43;3.10;;;20.80;99.90;;;;;;4993516;28;20050;-78
2022/08/27 06:39:00;;;;;;;8.50;2.70;;;20.70;99.90;;;;;;4993442;28;20276;-82
2022/08/27 06:41:27;;;;;;;16.90;2.88;;;20.80;99.90;;;;;;4992468;28;20033;-81
2022/08/27 06:43:54;;;;;;;12.87;3.40;;;20.90;99.90;;;;;;4992601;28;20019;-80
2022/08/27 06:46:24;;;;;;;15.30;3.20;;;21.00;99.90;;;;;;4993715;28;20256;-81
2022/08/27 06:48:56;;;;;;;9.63;2.85;;;21.00;99.90;;;;;;4992347;28;20048;-83
2022/08/27 06:51:28;;;;;;;11.27;2.78;;;20.90;99.90;;;;;;4992713;28;20049;-82
2022/08/27 06:53:56;;;;;;;15.98;2.40;;;20.90;99.90;;;;;;4995717;28;20058;-81
2022/08/27 06:56:22;;;;;;;11.05;2.42;;;20.90;99.90;;;;;;4993507;28;20023;-80
2022/08/27 06:58:52;;;;;;;10.38;2.83;;;21.10;99.90;;;;;;4992308;28;20038;-83
2022/08/27 07:01:22;;;;;;;10.77;3.55;;;21.10;99.90;;;;;;4993002;28;20030;-82
2022/08/27 07:03:49;;;;;;;10.68;3.22;;;21.20;99.90;;;;;;4992898;28;20384;-77
2022/08/27 07:06:16;;;;;;;11.63;2.80;;;21.10;99.90;;;;;;4993028;28;20053;-80
2022/08/27 07:08:44;;;;;;;8.90;2.70;;;21.00;99.90;;;;;;4992593;28;20369;-81
2022/08/27 07:11:11;;;;;;;15.57;3.00;;;21.00;99.90;;;;;;4992813;28;20547;-75
2022/08/27 07:13:38;;;;;;;13.00;3.30;;;21.00;99.90;;;;;;4992803;28;20421;-76
2022/08/27 07:16:10;;;;;;;7.97;2.80;;;21.00;99.90;;;;;;4992540;28;20284;-75
2022/08/27 07:18:37;;;;;;;20.60;3.63;;;20.70;99.90;;;;;;4992388;28;20097;-76
2022/08/27 07:21:06;;;;;;;9.77;3.17;;;20.80;99.90;;;;;;4992427;28;20035;-76
2022/08/27 07:23:36;;;;;;;10.35;2.47;;;20.90;99.90;;;;;;4992274;28;20045;-76
2022/08/27 07:26:08;;;;;;;8.45;2.90;;;20.90;99.90;;;;;;4991736;28;20038;-75
2022/08/27 07:28:33;;;;;;;12.13;3.42;;;21.00;99.90;;;;;;4991296;28;20038;-75
2022/08/27 07:30:59;;;;;;;13.68;3.45;;;21.00;99.90;;;;;;4992181;28;20130;-75
2022/08/27 07:33:25;;;;;;;13.68;3.63;;;21.00;99.90;;;;;;4992013;28;20118;-74
2022/08/27 07:35:51;;;;;;;12.40;3.00;;;21.00;99.90;;;;;;4990846;28;20121;-75
2022/08/27 07:38:16;;;;;;;14.23;3.13;;;21.00;99.90;;;;;;4992161;28;20030;-78
2022/08/27 07:40:42;;;;;;;15.88;3.20;;;21.10;99.90;;;;;;4992607;28;20042;-76
2022/08/27 07:45:55;;;;;;;9.35;2.85;;;21.20;99.80;;;;;;4992462;28;20148;-89
2022/08/27 07:48:24;;;;;;;20.08;3.42;;;21.30;99.80;;;;;;4991360;28;20038;-82
2022/08/27 07:50:51;;;;;;;9.98;3.33;;;21.30;99.60;;;;;;4991869;28;20511;-75
2022/08/27 07:53:18;;;;;;;11.97;3.83;;;21.30;99.70;;;;;;4991810;28;20489;-74
2022/08/27 07:55:44;;;;;;;8.80;3.13;;;21.30;99.70;;;;;;4991096;28;20018;-73
2022/08/27 07:58:10;;;;;;;9.70;2.63;;;21.40;99.70;;;;;;4991752;28;20104;-75
2022/08/27 08:00:39;;;;;;;15.98;3.30;;;21.20;99.50;;;;;;4990515;28;20045;-75
2022/08/27 08:03:04;;;;;;;8.13;2.72;;;21.30;99.60;;;;;;4990878;28;20068;-79
2022/08/27 08:05:30;;;;;;;8.70;2.63;;;21.30;99.60;;;;;;4991102;28;20084;-76
2022/08/27 08:07:56;;;;;;;11.07;2.85;;;21.40;99.50;;;;;;4991341;28;20454;-74
2022/08/27 08:10:22;;;;;;;12.52;2.95;;;21.50;99.40;;;;;;4991996;28;20062;-78
2022/08/27 08:12:48;;;;;;;19.52;3.20;;;21.50;99.40;;;;;;4991756;28;20369;-88
2022/08/27 08:15:14;;;;;;;10.80;2.88;;;21.50;99.30;;;;;;4992069;28;20369;-75
2022/08/27 08:17:40;;;;;;;12.52;2.72;;;21.50;99.20;;;;;;4991987;28;20053;-78
2022/08/27 08:20:08;;;;;;;10.07;2.40;;;21.30;99.30;;;;;;4992478;28;20022;-75
2022/08/27 08:22:34;;;;;;;9.90;2.25;;;21.30;99.30;;;;;;4991381;28;20045;-74
2022/08/27 08:25:00;;;;;;;13.40;2.85;;;21.20;99.50;;;;;;4991573;28;20034;-77
2022/08/27 08:27:26;;;;;;;10.25;2.67;;;21.20;99.60;;;;;;4991387;28;20026;-75
2022/08/27 08:29:52;;;;;;;6.85;2.08;;;21.30;99.40;;;;;;4991642;28;20116;-78
2022/08/27 08:32:20;;;;;;;9.95;2.33;;;21.40;99.30;;;;;;4991457;28;20082;-76
2022/08/27 08:34:46;;;;;;;13.52;2.45;;;21.40;99.50;;;;;;4992022;28;20010;-78
2022/08/27 08:37:13;;;;;;;15.55;3.00;;;21.50;99.20;;;;;;4991600;28;20500;-78
2022/08/27 08:39:39;;;;;;;9.43;2.47;;;21.40;99.20;;;;;;4991509;28;20026;-77
2022/08/27 08:42:07;;;;;;;8.65;2.22;;;21.40;99.00;;;;;;4990376;28;20384;-78
2022/08/27 08:44:47;;;;;;;8.70;2.40;;;21.40;99.20;;;;;;4991572;28;20084;-76
2022/08/27 08:47:13;;;;;;;9.90;2.35;;;21.40;99.10;;;;;;4991929;28;20018;-77
2022/08/27 08:50:09;;;;;;;15.23;2.50;;;21.50;99.20;;;;;;4991774;28;20441;-76
2022/08/27 08:52:47;;;;;;;12.53;2.57;;;21.50;99.10;;;;;;4991496;28;20037;-79
2022/08/27 08:55:56;;;;;;;16.63;2.75;;;21.40;99.10;;;;;;4995053;28;20353;-77
2022/08/27 08:58:33;;;;;;;8.95;2.92;;;21.60;99.10;;;;;;4978655;28;20034;-77
2022/08/27 09:01:02;;;;;;;8.82;2.42;;;21.60;98.90;;;;;;4994832;28;20034;-77
2022/08/27 09:03:28;;;;;;;11.18;2.47;;;21.70;98.90;;;;;;4994844;28;20066;-78
2022/08/27 09:05:57;;;;;;;8.63;2.65;;;21.50;98.80;;;;;;4994002;28;20101;-77
2022/08/27 09:08:42;;;;;;;13.55;3.08;;;21.60;98.90;;;;;;4993645;28;20096;-76
2022/08/27 09:11:36;;;;;;;9.48;2.13;;;21.60;98.90;;;;;;4995120;28;20061;-76
2022/08/27 09:14:13;;;;;;;9.45;2.53;;;21.70;98.90;;;;;;4993788;28;20349;-77
2022/08/27 09:16:39;;;;;;;12.15;2.58;;;21.70;98.80;;;;;;4993952;28;20468;-77
2022/08/27 09:19:05;;;;;;;12.85;3.38;;;21.70;98.60;;;;;;4993618;28;20042;-77
2022/08/27 09:21:48;;;;;;;14.02;2.72;;;21.60;98.70;;;;;;4993674;28;20034;-77
2022/08/27 09:24:21;;;;;;;8.18;2.30;;;21.60;98.70;;;;;;4994514;28;20096;-77
2022/08/27 09:26:46;;;;;;;13.98;2.75;;;21.60;98.80;;;;;;4994673;28;20472;-76
2022/08/27 09:29:17;;;;;;;14.98;2.80;;;21.60;98.80;;;;;;4993670;28;20023;-76
2022/08/27 09:31:46;;;;;;;8.77;2.30;;;21.50;99.10;;;;;;4994426;28;20397;-77
2022/08/27 09:34:12;;;;;;;10.10;2.28;;;21.50;99.00;;;;;;4993355;28;20384;-77
2022/08/27 09:36:50;;;;;;;12.80;2.72;;;21.60;98.90;;;;;;4994469;28;20048;-76
2022/08/27 09:39:16;;;;;;;9.85;2.40;;;21.60;98.70;;;;;;4994284;28;20066;-77
2022/08/27 09:41:46;;;;;;;13.23;2.47;;;21.50;98.80;;;;;;4994728;28;20090;-77
2022/08/27 09:44:17;;;;;;;8.38;2.78;;;21.60;98.80;;;;;;4995113;28;20061;-78
2022/08/27 09:46:59;;;;;;;12.25;2.25;;;21.60;98.80;;;;;;4993432;28;20547;-77
2022/08/27 09:49:25;;;;;;;11.80;2.30;;;21.70;98.70;;;;;;4993426;28;20412;-77
2022/08/27 09:51:52;;;;;;;10.40;2.47;;;21.70;98.60;;;;;;4992697;28;20037;-76
2022/08/27 09:54:27;;;;;;;7.40;2.13;;;21.80;98.60;;;;;;4993955;28;20500;-76
2022/08/27 09:56:52;;;;;;;8.50;2.78;;;21.90;98.50;;;;;;4994171;28;20034;-77
2022/08/27 09:59:25;;;;;;;13.38;2.75;;;21.90;98.30;;;;;;4993906;28;20369;-77
2022/08/27 10:02:20;;;;;;;11.82;3.42;;;22.00;98.10;;;;;;4992951;28;20026;-76
2022/08/27 10:04:51;;;;;;;10.98;2.72;;;22.20;98.10;;;;;;4993493;28;20034;-76
2022/08/27 10:07:45;;;;;;;15.07;2.63;;;22.20;97.80;;;;;;4993714;28;20027;-77
2022/08/27 10:10:54;;;;;;;11.45;3.03;;;22.10;97.70;;;;;;4993503;28;20042;-77
2022/08/27 10:13:30;;;;;;;11.38;2.50;;;22.30;97.70;;;;;;4993049;28;20027;-76
2022/08/27 10:16:14;;;;;;;9.52;2.50;;;22.50;97.60;;;;;;4993390;28;20042;-76
2022/08/27 10:19:07;;;;;;;8.73;2.28;;;22.80;97.20;;;;;;4992295;28;20392;-76
2022/08/27 10:21:45;;;;;;;10.18;2.65;;;22.90;97.00;;;;;;4992303;28;20030;-77
2022/08/27 10:24:27;;;;;;;13.65;2.78;;;23.00;96.70;;;;;;4993367;28;20038;-77
2022/08/27 10:27:14;;;;;;;7.53;2.78;;;23.00;96.60;;;;;;4992146;28;20026;-77
2022/08/27 10:30:00;;;;;;;9.63;2.85;;;23.10;96.60;;;;;;4993856;28;20057;-78
2022/08/27 10:32:40;;;;;;;5.63;1.95;;;23.00;96.30;;;;;;4993412;28;20034;-77
2022/08/27 10:35:15;;;;;;;12.57;4.30;;;23.10;96.60;;;;;;4992596;28;20361;-78
2022/08/27 10:38:06;;;;;;;10.30;2.40;;;23.10;96.20;;;;;;4993062;28;20038;-77
2022/08/27 10:40:44;;;;;;;12.60;2.88;;;23.20;96.20;;;;;;4992025;28;20093;-78
2022/08/27 10:43:41;;;;;;;10.18;2.40;;;23.20;96.10;;;;;;4993082;28;20056;-78
2022/08/27 10:46:26;;;;;;;10.43;2.42;;;23.20;95.90;;;;;;4993188;28;20027;-77
2022/08/27 10:49:04;;;;;;;6.68;2.03;;;23.20;95.60;;;;;;4993293;28;20110;-78
2022/08/27 10:51:40;;;;;;;9.13;2.65;;;23.20;95.50;;;;;;4992194;28;20377;-77
2022/08/27 10:54:25;;;;;;;6.10;2.30;;;23.20;95.50;;;;;;4992794;28;20069;-78
2022/08/27 10:57:13;;;;;;;10.48;2.28;;;23.30;95.40;;;;;;4992820;28;20028;-78
2022/08/27 10:59:54;;;;;;;7.35;2.10;;;23.30;95.00;;;;;;4992708;28;20039;-77
2022/08/27 11:02:42;;;;;;;8.90;2.60;;;23.20;94.80;;;;;;4992433;28;20065;-76
2022/08/27 11:05:24;;;;;;;5.60;1.80;;;23.40;94.80;;;;;;4993250;28;20023;-79
2022/08/27 11:08:05;;;;;;;5.32;1.70;;;23.60;94.70;;;;;;4993864;28;20039;-80
2022/08/27 11:10:35;;;;;;;8.13;3.15;;;24.00;94.70;;;;;;4993421;28;20446;-82
2022/08/27 11:13:10;;;;;;;4.65;1.33;;;24.30;94.40;;;;;;4995452;28;20096;-83
2022/08/27 11:15:40;;;;;;;10.20;2.05;;;24.50;93.70;;;;;;5000037;28;20041;-81
2022/08/27 11:18:14;;;;;;;7.25;1.77;;;24.40;93.40;;;;;;4993480;28;20121;-78
2022/08/27 11:20:52;;;;;;;6.72;2.03;;;24.50;93.10;;;;;;4999772;28;20382;-83
2022/08/27 11:23:24;;;;;;;7.80;1.77;;;24.70;93.20;;;;;;4995606;28;20026;-79
2022/08/27 11:25:55;;;;;;;5.55;1.73;;;24.90;92.70;;;;;;4998518;28;20036;-81
2022/08/27 11:28:40;;;;;;;8.13;2.22;;;25.10;92.80;;;;;;4993738;28;20029;-79
2022/08/27 11:31:28;;;;;;;8.23;2.05;;;25.20;92.40;;;;;;4999363;28;20026;-72
2022/08/27 11:34:28;;;;;;;14.55;2.55;;;25.10;92.00;;;;;;4994401;28;20030;-75
2022/08/27 11:37:32;;;;;;;7.68;1.98;;;25.10;92.30;;;;;;4995755;28;20027;-76
2022/08/27 11:40:17;;;;;;;8.52;2.22;;;25.10;91.80;;;;;;4970121;28;20030;-76
2022/08/27 11:42:53;;;;;;;7.95;2.00;;;25.20;92.50;;;;;;4992472;28;20110;-73
2022/08/27 11:45:28;;;;;;;9.75;2.10;;;25.20;92.00;;;;;;4992120;28;20113;-75
2022/08/27 11:48:01;;;;;;;9.02;2.45;;;25.30;92.30;;;;;;4990844;28;20030;-74
2022/08/27 11:50:29;;;;;;;7.78;1.90;;;25.30;91.60;;;;;;4991787;28;20026;-76
2022/08/27 11:53:04;;;;;;;8.43;2.30;;;25.30;92.30;;;;;;4991466;28;20338;-75
2022/08/27 11:55:35;;;;;;;10.00;2.58;;;25.30;91.40;;;;;;4991916;28;20054;-74
2022/08/27 11:58:19;;;;;;;9.35;2.40;;;25.10;91.00;;;;;;4991051;28;20396;-75
2022/08/27 12:00:45;;;;;;;6.20;2.80;;;24.70;91.30;;;;;;4991995;28;20128;-75
2022/08/27 12:03:20;;;;;;;8.18;2.83;;;24.60;91.70;;;;;;4991643;28;20038;-74
2022/08/27 12:06:05;;;;;;;7.93;2.38;;;24.30;91.30;;;;;;4991896;28;20027;-77
2022/08/27 12:08:34;;;;;;;8.18;2.67;;;24.30;91.60;;;;;;4992105;28;20023;-74
2022/08/27 12:11:25;;;;;;;9.32;2.60;;;24.50;91.90;;;;;;4991816;28;20153;-73
2022/08/27 12:13:58;;;;;;;10.88;2.50;;;24.30;91.50;;;;;;4991872;28;20456;-75
2022/08/27 12:16:34;;;;;;;7.80;2.40;;;24.30;91.90;;;;;;4991553;28;20496;-76
2022/08/27 12:19:22;;;;;;;8.60;2.40;;;24.30;91.70;;;;;;4990250;28;20059;-72
2022/08/27 12:22:06;;;;;;;8.45;2.22;;;24.40;91.70;;;;;;4991361;28;20030;-71
2022/08/27 12:24:35;;;;;;;11.95;3.35;;;24.20;91.60;;;;;;4991357;28;20088;-72
2022/08/27 12:27:14;;;;;;;6.35;2.60;;;24.40;91.70;;;;;;4990436;28;20038;-70
2022/08/27 12:29:48;;;;;;;7.70;2.53;;;24.20;91.80;;;;;;4994929;28;20065;-72
2022/08/27 12:32:32;;;;;;;12.73;2.58;;;24.30;92.10;;;;;;4996265;28;20030;-71
2022/08/27 12:35:12;;;;;;;9.50;2.67;;;24.30;91.50;;;;;;4995101;28;20038;-73
2022/08/27 12:37:52;;;;;;;12.25;3.08;;;24.30;91.90;;;;;;4995179;28;20038;-69
2022/08/27 12:40:29;;;;;;;11.88;2.30;;;24.40;91.80;;;;;;4994998;28;20026;-70
2022/08/27 12:43:12;;;;;;;14.40;3.17;;;24.40;91.80;;;;;;4995170;28;20133;-72
2022/08/27 12:46:05;;;;;;;7.65;2.60;;;24.20;91.70;;;;;;4994993;28;20349;-72
2022/08/27 12:48:41;;;;;;;7.13;2.33;;;24.30;91.70;;;;;;4995148;28;20630;-71
2022/08/27 12:51:13;;;;;;;6.13;2.13;;;24.30;91.80;;;;;;4994853;28;20085;-71
2022/08/27 12:53:55;;;;;;;10.43;2.00;;;24.40;91.90;;;;;;4995474;28;20022;-72
2022/08/27 12:56:35;;;;;;;7.20;2.00;;;24.40;91.80;;;;;;4994958;28;20026;-71
2022/08/27 12:59:12;;;;;;;10.93;2.33;;;24.40;91.80;;;;;;4995413;28;20026;-72
2022/08/27 13:02:12;;;;;;;9.88;2.70;;;24.40;91.80;;;;;;4995059;28;20043;-72
2022/08/27 13:04:39;;;;;;;7.57;2.10;;;24.50;91.80;;;;;;4995057;28;20030;-72
2022/08/27 13:07:05;;;;;;;8.55;2.40;;;24.50;91.70;;;;;;4977560;28;20368;-72